Time;durP1;ratioP1;P1;durP2;ratioP2;P2;SDS_P1;SDS_P2;PMS_P1;PMS_P2;Temp;Humidity;BMP_temperature;BMP_pressure;BME280_temperature;BME280_humidity;BME280_pressure;Samples;Min_cycle;Max_cycle;Signal;HPM_P1;HPM_P2
2022/11/27 00:02:53;;;;;;;35.60;10.37;;;5.50;43.50;;;;;;10390636;28;20291;-75
2022/11/27 00:07:56;;;;;;;29.70;10.90;;;5.40;43.70;;;;;;10395293;28;20233;-75
2022/11/27 00:13:00;;;;;;;22.10;11.93;;;5.30;43.80;;;;;;10396449;28;20261;-75
2022/11/27 00:18:04;;;;;;;26.63;13.47;;;5.20;44.00;;;;;;10394137;28;20233;-69
2022/11/27 00:23:07;;;;;;;20.30;10.33;;;5.20;44.20;;;;;;10391133;28;20253;-69
2022/11/27 00:28:10;;;;;;;18.57;9.70;;;5.20;44.20;;;;;;10395312;28;20728;-68
2022/11/27 00:33:15;;;;;;;23.33;11.07;;;5.20;44.20;;;;;;10390473;28;20237;-68
2022/11/27 00:38:19;;;;;;;11.20;10.10;;;5.10;44.30;;;;;;10392286;28;20237;-68
2022/11/27 00:43:22;;;;;;;11.43;9.40;;;5.10;44.60;;;;;;10399294;28;20237;-68
2022/11/27 00:48:27;;;;;;;19.43;10.17;;;5.10;44.80;;;;;;10407901;28;20229;-68
2022/11/27 00:53:31;;;;;;;16.90;10.60;;;5.10;44.70;;;;;;10408472;28;20709;-68
2022/11/27 00:58:34;;;;;;;20.03;10.57;;;5.10;44.40;;;;;;10406478;28;20233;-68
2022/11/27 01:03:39;;;;;;;9.50;8.63;;;5.10;44.60;;;;;;10401261;28;20241;-68
2022/11/27 01:08:43;;;;;;;8.90;8.10;;;5.10;44.70;;;;;;10409894;28;20236;-68
2022/11/27 01:13:46;;;;;;;10.17;8.27;;;5.10;44.70;;;;;;10401531;28;20717;-68
2022/11/27 01:18:53;;;;;;;9.33;8.43;;;5.10;44.60;;;;;;10408188;28;20225;-68
2022/11/27 01:23:56;;;;;;;8.57;7.77;;;5.10;44.80;;;;;;10407597;28;20538;-68
2022/11/27 01:29:00;;;;;;;9.87;8.83;;;5.10;45.00;;;;;;10408638;28;20228;-68
2022/11/27 01:34:07;;;;;;;16.13;8.87;;;5.20;45.00;;;;;;10406639;28;20224;-68
2022/11/27 01:39:15;;;;;;;8.57;7.83;;;5.20;45.00;;;;;;10406140;28;20224;-69
2022/11/27 01:44:52;;;;;;;8.10;7.40;;;5.30;45.00;;;;;;10407885;28;20228;-74
2022/11/27 01:50:08;;;;;;;16.90;9.10;;;5.30;45.10;;;;;;10405371;28;20222;-75
2022/11/27 01:55:17;;;;;;;9.13;8.20;;;5.30;44.90;;;;;;10403026;28;20229;-75
2022/11/27 02:00:21;;;;;;;12.03;7.90;;;5.40;44.60;;;;;;10399609;28;20312;-75
2022/11/27 02:05:30;;;;;;;47.73;8.03;;;5.30;44.40;;;;;;10398840;28;20253;-75
2022/11/27 02:10:44;;;;;;;33.20;8.47;;;5.30;44.10;;;;;;10401657;28;20279;-75
2022/11/27 02:15:53;;;;;;;9.37;8.13;;;5.20;43.90;;;;;;10398607;28;20229;-75
2022/11/27 02:21:04;;;;;;;17.63;8.20;;;5.00;43.70;;;;;;10400589;28;20226;-70
2022/11/27 02:26:23;;;;;;;41.87;8.30;;;4.90;44.00;;;;;;10399276;28;20248;-70
2022/11/27 02:31:36;;;;;;;7.43;6.83;;;4.80;44.10;;;;;;10399522;28;20244;-70
2022/11/27 02:36:43;;;;;;;7.63;6.93;;;4.70;44.30;;;;;;10398463;28;20238;-69
2022/11/27 02:41:50;;;;;;;48.30;7.60;;;4.60;44.40;;;;;;10398583;28;20241;-69
2022/11/27 02:46:56;;;;;;;16.47;6.90;;;4.60;44.30;;;;;;10399818;28;20295;-69
2022/11/27 02:52:01;;;;;;;7.33;6.73;;;4.60;44.20;;;;;;10398921;28;20233;-69
2022/11/27 02:57:06;;;;;;;10.27;7.30;;;4.60;44.50;;;;;;10396088;28;20239;-74
2022/11/27 03:02:17;;;;;;;7.53;6.83;;;4.70;44.70;;;;;;10393403;28;20229;-74
2022/11/27 03:07:26;;;;;;;7.30;6.70;;;4.60;44.70;;;;;;10397346;28;20230;-74
2022/11/27 03:12:30;;;;;;;7.17;6.57;;;4.60;44.70;;;;;;10390403;28;20238;-75
2022/11/27 03:17:49;;;;;;;6.27;5.73;;;4.60;44.60;;;;;;10394412;28;20722;-74
2022/11/27 03:22:54;;;;;;;6.70;6.10;;;4.60;44.50;;;;;;10393505;28;20237;-74
2022/11/27 03:28:01;;;;;;;6.70;6.10;;;4.70;44.50;;;;;;10397324;28;20229;-69
2022/11/27 03:33:05;;;;;;;6.70;6.10;;;4.70;44.50;;;;;;10394656;28;20240;-69
2022/11/27 03:38:08;;;;;;;12.23;6.90;;;4.80;44.50;;;;;;10398695;28;20261;-69
2022/11/27 03:43:18;;;;;;;6.53;6.00;;;4.80;44.30;;;;;;10369871;28;20651;-69
2022/11/27 03:48:30;;;;;;;7.50;6.90;;;4.80;44.20;;;;;;10394008;28;24867;-69
2022/11/27 03:53:42;;;;;;;6.67;6.13;;;4.80;44.30;;;;;;10396842;28;21180;-69
2022/11/27 03:58:49;;;;;;;12.90;6.73;;;4.90;44.40;;;;;;10394956;28;20229;-71
2022/11/27 04:03:54;;;;;;;7.83;6.80;;;4.90;44.50;;;;;;10392734;28;20240;-71
2022/11/27 04:08:57;;;;;;;7.47;6.80;;;4.90;44.30;;;;;;10396714;28;20347;-72
2022/11/27 04:14:00;;;;;;;6.60;5.83;;;4.90;44.30;;;;;;10391219;28;20225;-72
2022/11/27 04:19:04;;;;;;;5.57;5.07;;;4.90;44.30;;;;;;10394092;28;20225;-71
2022/11/27 04:24:08;;;;;;;12.97;6.00;;;4.90;44.30;;;;;;10394593;28;20229;-71
2022/11/27 04:29:11;;;;;;;6.57;5.97;;;4.90;44.30;;;;;;10395440;28;20689;-71
2022/11/27 04:34:15;;;;;;;15.23;5.70;;;4.90;44.30;;;;;;10393217;28;20221;-71
2022/11/27 04:39:18;;;;;;;6.37;5.87;;;4.80;44.30;;;;;;10395365;28;20684;-72
2022/11/27 04:44:21;;;;;;;6.27;5.77;;;4.90;44.40;;;;;;10394090;28;20237;-69
2022/11/27 04:49:26;;;;;;;5.87;5.37;;;4.80;44.40;;;;;;10395867;28;20663;-68
2022/11/27 04:54:29;;;;;;;7.57;6.33;;;4.80;44.50;;;;;;10392637;28;20241;-68
2022/11/27 04:59:32;;;;;;;29.70;5.83;;;4.90;44.40;;;;;;10396140;28;20230;-68
2022/11/27 05:04:37;;;;;;;10.90;5.37;;;4.80;44.00;;;;;;10388936;28;20291;-66
2022/11/27 05:09:40;;;;;;;5.63;5.13;;;4.80;44.30;;;;;;10395892;28;20295;-66
2022/11/27 05:14:43;;;;;;;5.53;5.03;;;4.70;44.30;;;;;;10392979;28;20299;-68
2022/11/27 05:19:48;;;;;;;13.20;5.80;;;4.80;45.70;;;;;;10392201;28;20233;-67
2022/11/27 05:24:51;;;;;;;6.27;5.70;;;4.90;46.60;;;;;;10389919;28;20649;-67
2022/11/27 05:29:54;;;;;;;15.57;6.10;;;4.90;45.40;;;;;;10392643;28;20225;-66
2022/11/27 05:34:59;;;;;;;7.43;6.00;;;5.00;45.10;;;;;;10401282;28;20221;-67
2022/11/27 05:40:02;;;;;;;5.23;4.73;;;5.00;45.00;;;;;;10401371;28;20221;-67
2022/11/27 05:45:06;;;;;;;6.63;6.03;;;5.00;44.90;;;;;;10400456;28;20237;-69
2022/11/27 05:50:11;;;;;;;7.80;7.10;;;5.00;44.90;;;;;;10400018;28;20253;-68
2022/11/27 05:55:14;;;;;;;6.43;5.83;;;5.00;45.00;;;;;;10400687;28;20725;-69
2022/11/27 06:00:17;;;;;;;8.43;7.63;;;5.00;44.80;;;;;;10398083;28;20719;-73
2022/11/27 06:05:22;;;;;;;6.50;5.90;;;5.00;45.00;;;;;;10397393;28;20237;-68
2022/11/27 06:10:25;;;;;;;11.53;7.37;;;5.10;45.10;;;;;;10398636;28;20701;-68
2022/11/27 06:15:29;;;;;;;15.30;5.93;;;5.10;45.10;;;;;;10397302;28;20237;-67
2022/11/27 06:20:33;;;;;;;11.20;7.17;;;5.10;45.10;;;;;;10398214;28;20233;-66
2022/11/27 06:25:41;;;;;;;20.03;5.63;;;5.10;45.10;;;;;;10398814;28;20591;-66
2022/11/27 06:30:44;;;;;;;17.20;7.33;;;5.10;45.00;;;;;;10397955;28;20226;-66
2022/11/27 06:35:49;;;;;;;6.33;5.83;;;5.10;45.20;;;;;;10398363;28;20233;-68
2022/11/27 06:40:52;;;;;;;14.37;13.03;;;5.10;45.30;;;;;;10396800;28;20233;-68
2022/11/27 06:45:56;;;;;;;7.67;6.83;;;5.20;45.50;;;;;;10399233;28;20630;-68
2022/11/27 06:51:01;;;;;;;19.33;17.43;;;5.20;45.70;;;;;;10397700;28;20218;-68
2022/11/27 06:56:05;;;;;;;10.30;6.80;;;5.20;45.90;;;;;;10396257;28;20280;-67
2022/11/27 07:01:09;;;;;;;17.53;10.83;;;5.30;45.90;;;;;;10399225;28;20221;-67
2022/11/27 07:06:17;;;;;;;17.17;6.47;;;5.30;45.90;;;;;;10395036;28;20724;-66
2022/11/27 07:11:22;;;;;;;8.70;7.90;;;5.40;46.10;;;;;;10395968;28;20233;-73
2022/11/27 07:16:26;;;;;;;11.00;7.87;;;5.40;45.90;;;;;;10393289;28;20226;-68
2022/11/27 07:21:32;;;;;;;14.27;12.80;;;5.50;46.00;;;;;;10394978;28;20863;-66
2022/11/27 07:26:35;;;;;;;8.07;7.27;;;5.50;46.20;;;;;;10395091;28;20218;-73
2022/11/27 07:31:38;;;;;;;11.93;8.43;;;5.50;46.10;;;;;;10395446;28;20242;-73
2022/11/27 07:36:42;;;;;;;7.57;6.87;;;5.50;46.10;;;;;;10396803;28;20291;-66
2022/11/27 07:41:45;;;;;;;13.70;7.13;;;5.60;46.20;;;;;;10392915;28;20237;-69
2022/11/27 07:46:49;;;;;;;19.53;9.20;;;5.60;45.90;;;;;;10395557;28;20232;-67
2022/11/27 07:51:53;;;;;;;22.43;13.00;;;5.60;45.90;;;;;;10388799;28;20237;-73
2022/11/27 07:56:56;;;;;;;19.93;10.33;;;5.60;45.90;;;;;;10393563;28;20234;-73
2022/11/27 08:01:59;;;;;;;10.83;7.53;;;5.60;45.50;;;;;;10389732;28;20794;-73
2022/11/27 08:07:04;;;;;;;16.73;6.23;;;5.50;45.60;;;;;;10393076;28;20222;-73
2022/11/27 08:12:07;;;;;;;7.07;5.33;;;5.50;46.00;;;;;;10393062;28;20717;-70
2022/11/27 08:17:12;;;;;;;17.07;5.90;;;5.40;45.80;;;;;;10391897;28;20229;-69
2022/11/27 08:22:19;;;;;;;9.93;6.07;;;5.30;46.10;;;;;;10394596;28;20240;-69
2022/11/27 08:27:22;;;;;;;6.10;5.20;;;5.30;46.20;;;;;;10393378;28;20226;-66
2022/11/27 08:32:26;;;;;;;7.10;5.23;;;5.30;46.10;;;;;;10393199;28;20906;-67
2022/11/27 08:37:30;;;;;;;7.30;5.93;;;5.20;46.10;;;;;;10394235;28;20229;-68
2022/11/27 08:42:33;;;;;;;7.83;6.20;;;5.20;46.80;;;;;;10393105;28;20233;-69
2022/11/27 08:47:36;;;;;;;9.87;6.97;;;5.20;47.00;;;;;;10391475;28;20229;-66
2022/11/27 08:52:41;;;;;;;9.13;6.13;;;5.30;47.00;;;;;;10392180;28;20233;-66
2022/11/27 08:57:44;;;;;;;7.03;6.33;;;5.40;47.00;;;;;;10391518;28;20233;-67
2022/11/27 09:02:47;;;;;;;9.43;8.43;;;5.40;46.80;;;;;;10386819;28;20228;-69
2022/11/27 09:07:52;;;;;;;10.00;8.97;;;5.50;46.80;;;;;;10398749;28;20760;-73
2022/11/27 09:12:58;;;;;;;8.87;7.20;;;5.50;46.90;;;;;;10398650;28;20221;-73
2022/11/27 09:18:01;;;;;;;9.37;8.47;;;5.50;46.80;;;;;;10398290;28;20232;-68
2022/11/27 09:23:05;;;;;;;7.20;6.50;;;5.50;46.90;;;;;;10397980;28;20225;-67
2022/11/27 09:28:16;;;;;;;6.90;6.30;;;5.60;47.30;;;;;;10399232;28;20252;-69
2022/11/27 09:33:19;;;;;;;7.23;6.57;;;5.70;47.30;;;;;;10398335;28;20288;-68
2022/11/27 09:38:24;;;;;;;6.93;6.33;;;5.80;47.10;;;;;;10400853;28;20260;-74
2022/11/27 09:43:30;;;;;;;6.20;5.70;;;5.80;47.30;;;;;;10397307;28;20279;-69
2022/11/27 09:48:38;;;;;;;7.73;7.03;;;5.80;47.30;;;;;;10400432;28;20909;-69
2022/11/27 09:53:48;;;;;;;6.20;5.60;;;5.90;47.10;;;;;;10393407;28;20226;-69
2022/11/27 09:58:57;;;;;;;8.07;7.37;;;5.90;47.30;;;;;;10398615;28;20283;-68
2022/11/27 10:04:01;;;;;;;8.90;8.00;;;5.80;47.20;;;;;;10397294;28;20225;-74
2022/11/27 10:09:15;;;;;;;15.50;13.83;;;5.80;47.10;;;;;;10396270;28;20225;-69
2022/11/27 10:14:30;;;;;;;10.80;9.70;;;5.80;47.60;;;;;;10397649;28;22624;-69
2022/11/27 10:19:43;;;;;;;6.90;6.30;;;5.80;47.40;;;;;;10394648;28;20229;-67
2022/11/27 10:24:59;;;;;;;7.30;6.70;;;5.80;47.30;;;;;;10396802;28;20236;-66
2022/11/27 10:30:12;;;;;;;6.50;5.90;;;5.90;47.70;;;;;;10398889;28;20221;-69
2022/11/27 10:35:18;;;;;;;7.17;6.57;;;5.90;47.30;;;;;;10395404;28;20937;-73
2022/11/27 10:40:27;;;;;;;6.17;5.67;;;6.00;47.50;;;;;;10397886;28;20250;-69
2022/11/27 10:45:39;;;;;;;6.47;5.97;;;6.00;47.70;;;;;;10383423;28;20238;-69
2022/11/27 10:50:44;;;;;;;5.73;5.23;;;6.10;47.90;;;;;;10388593;28;21070;-69
2022/11/27 10:56:05;;;;;;;6.27;5.70;;;6.10;47.20;;;;;;10383025;28;20232;-68
2022/11/27 11:01:10;;;;;;;6.47;5.87;;;6.10;47.70;;;;;;10393938;28;20304;-68
2022/11/27 11:06:18;;;;;;;6.23;5.67;;;6.20;48.20;;;;;;10392130;28;20237;-68
2022/11/27 11:11:27;;;;;;;7.87;7.17;;;6.30;47.90;;;;;;10393661;28;20292;-71
2022/11/27 11:16:30;;;;;;;9.33;8.47;;;6.30;47.60;;;;;;10394643;28;20224;-68
2022/11/27 11:21:39;;;;;;;307.30;69.40;;;6.40;47.40;;;;;;10397860;28;20234;-70
2022/11/27 11:26:48;;;;;;;79.63;30.23;;;6.40;47.20;;;;;;10391920;28;20320;-69
2022/11/27 11:31:53;;;;;;;178.33;123.27;;;6.40;47.40;;;;;;10394535;28;20237;-74
2022/11/27 11:36:58;;;;;;;30.67;23.53;;;6.40;47.20;;;;;;10394646;28;20306;-68
2022/11/27 11:42:09;;;;;;;14.33;12.83;;;6.50;47.40;;;;;;10395602;28;21052;-68
2022/11/27 11:47:19;;;;;;;10.23;9.23;;;6.50;48.10;;;;;;10391448;28;20580;-69
2022/11/27 11:52:52;;;;;;;8.17;7.37;;;6.60;47.70;;;;;;10395269;28;20233;-69
2022/11/27 11:58:24;;;;;;;47.27;42.17;;;6.60;48.40;;;;;;10390164;28;20237;-68
2022/11/27 12:03:38;;;;;;;13.53;12.30;;;6.70;47.80;;;;;;10393523;28;20669;-68
2022/11/27 12:08:48;;;;;;;10.87;9.77;;;6.70;47.60;;;;;;10389184;28;20229;-68
2022/11/27 12:14:05;;;;;;;9.07;8.17;;;6.70;47.20;;;;;;10387704;28;20239;-69
2022/11/27 12:19:38;;;;;;;7.87;7.07;;;6.80;47.50;;;;;;10390987;28;20225;-69
2022/11/27 12:24:52;;;;;;;7.73;6.97;;;6.80;47.50;;;;;;10388570;28;20631;-66
2022/11/27 12:30:10;;;;;;;8.00;7.20;;;6.90;47.40;;;;;;10393364;28;20225;-68
2022/11/27 12:35:29;;;;;;;7.37;6.67;;;6.90;47.40;;;;;;10388672;28;20233;-68
2022/11/27 12:40:43;;;;;;;7.17;6.43;;;7.00;47.40;;;;;;10391521;28;20229;-74
2022/11/27 12:45:53;;;;;;;6.17;5.60;;;7.00;47.30;;;;;;10390251;28;20268;-69
2022/11/27 12:51:01;;;;;;;6.90;5.17;;;7.10;47.40;;;;;;10388180;28;20237;-69
2022/11/27 12:56:14;;;;;;;6.20;5.70;;;7.10;47.40;;;;;;10390385;28;20701;-69
2022/11/27 13:01:30;;;;;;;6.27;5.67;;;7.10;47.40;;;;;;10389443;28;20233;-68
2022/11/27 13:06:42;;;;;;;7.00;5.33;;;7.20;47.20;;;;;;10391521;28;20259;-69
2022/11/27 13:11:45;;;;;;;5.97;5.37;;;7.20;47.20;;;;;;10391614;28;20237;-68
2022/11/27 13:16:53;;;;;;;6.33;5.73;;;7.20;47.20;;;;;;10390990;28;20222;-67
2022/11/27 13:21:58;;;;;;;6.77;5.90;;;7.30;47.50;;;;;;10388516;28;20686;-69
2022/11/27 13:27:06;;;;;;;6.10;5.60;;;7.30;47.60;;;;;;10385303;28;20233;-74
2022/11/27 13:32:19;;;;;;;17.93;16.07;;;7.30;48.10;;;;;;10389416;28;20225;-72
2022/11/27 13:37:28;;;;;;;8.43;7.60;;;7.40;47.30;;;;;;10390562;28;20458;-69
2022/11/27 13:42:34;;;;;;;7.40;6.70;;;7.50;47.10;;;;;;10390691;28;20223;-69
2022/11/27 13:47:42;;;;;;;8.30;7.40;;;7.50;47.10;;;;;;10389355;28;20295;-67
2022/11/27 13:52:56;;;;;;;9.63;8.37;;;7.60;47.20;;;;;;10396855;28;20260;-69
2022/11/27 13:58:02;;;;;;;11.77;10.57;;;7.60;47.10;;;;;;10395724;28;20228;-67
2022/11/27 14:03:20;;;;;;;9.80;8.90;;;7.70;47.10;;;;;;10397073;28;20225;-69
2022/11/27 14:08:26;;;;;;;9.53;8.63;;;7.70;46.90;;;;;;10397316;28;20784;-69
2022/11/27 14:13:37;;;;;;;7.03;6.37;;;7.70;47.00;;;;;;10394952;28;20229;-67
2022/11/27 14:18:50;;;;;;;6.70;6.10;;;7.70;47.10;;;;;;10393285;28;20276;-67
2022/11/27 14:23:54;;;;;;;8.03;7.30;;;7.80;47.10;;;;;;10396240;28;20828;-67
2022/11/27 14:28:59;;;;;;;7.10;6.33;;;7.80;47.10;;;;;;10395556;28;20783;-67
2022/11/27 14:34:04;;;;;;;6.70;6.00;;;7.80;46.90;;;;;;10398764;28;20232;-67
2022/11/27 14:39:23;;;;;;;8.00;7.20;;;7.80;46.90;;;;;;10397574;28;20367;-75
2022/11/27 14:44:26;;;;;;;6.40;5.60;;;7.80;46.70;;;;;;10396016;28;20226;-67
2022/11/27 14:49:32;;;;;;;7.17;5.90;;;7.80;46.60;;;;;;10396023;28;20218;-68
2022/11/27 14:54:38;;;;;;;6.93;6.30;;;7.90;46.70;;;;;;10396249;28;20807;-69
2022/11/27 14:59:41;;;;;;;10.40;5.97;;;7.90;46.70;;;;;;10396653;28;20229;-68
2022/11/27 15:04:46;;;;;;;8.10;6.47;;;7.90;46.60;;;;;;10397426;28;20226;-74
2022/11/27 15:09:52;;;;;;;6.87;6.27;;;7.90;46.50;;;;;;10396287;28;20721;-75
2022/11/27 15:14:59;;;;;;;6.90;6.17;;;7.90;46.50;;;;;;10395981;28;20906;-74
2022/11/27 15:20:14;;;;;;;6.47;5.90;;;7.90;46.40;;;;;;10392019;28;20273;-68
2022/11/27 15:25:33;;;;;;;9.17;8.37;;;7.90;46.30;;;;;;10390519;28;20283;-68
2022/11/27 15:30:44;;;;;;;6.93;6.27;;;7.90;46.40;;;;;;10393068;28;20265;-68
2022/11/27 15:35:49;;;;;;;7.27;6.50;;;8.00;46.30;;;;;;10397472;28;20221;-68
2022/11/27 15:40:59;;;;;;;6.37;5.77;;;7.90;46.10;;;;;;10393419;28;20229;-68
2022/11/27 15:46:07;;;;;;;7.27;6.57;;;7.90;46.20;;;;;;10397817;28;20233;-68
2022/11/27 15:51:11;;;;;;;7.90;7.10;;;7.90;46.20;;;;;;10394960;28;20303;-74
2022/11/27 15:56:15;;;;;;;7.00;6.30;;;7.90;46.20;;;;;;10395489;28;20230;-67
2022/11/27 16:01:18;;;;;;;6.87;6.27;;;7.90;46.30;;;;;;10394384;28;20234;-68
2022/11/27 16:06:23;;;;;;;8.20;7.33;;;8.00;46.30;;;;;;10394267;28;20241;-75
2022/11/27 16:11:27;;;;;;;10.10;9.13;;;8.00;46.10;;;;;;10393742;28;20226;-75
2022/11/27 16:16:31;;;;;;;16.87;13.93;;;8.00;46.00;;;;;;10392296;28;20309;-75
2022/11/27 16:21:35;;;;;;;9.90;8.03;;;7.90;46.00;;;;;;10390528;28;20714;-69
2022/11/27 16:26:38;;;;;;;8.37;7.53;;;7.90;46.00;;;;;;10394669;28;20222;-69
2022/11/27 16:31:41;;;;;;;9.37;8.57;;;7.90;45.90;;;;;;10393497;28;20225;-67
2022/11/27 16:36:46;;;;;;;9.63;8.67;;;7.80;45.80;;;;;;10395838;28;20231;-69
2022/11/27 16:41:49;;;;;;;9.20;8.23;;;7.80;45.60;;;;;;10389370;28;20229;-69
2022/11/27 16:46:52;;;;;;;10.30;9.40;;;7.80;45.80;;;;;;10392418;28;20225;-69
2022/11/27 16:51:57;;;;;;;8.93;8.03;;;7.70;45.70;;;;;;10392351;28;20273;-69
2022/11/27 16:57:00;;;;;;;8.73;7.93;;;7.60;45.60;;;;;;10391839;28;20632;-67
2022/11/27 17:02:03;;;;;;;7.67;6.87;;;7.60;45.70;;;;;;10391712;28;20229;-67
2022/11/27 17:07:08;;;;;;;8.37;7.63;;;7.50;46.60;;;;;;10392794;28;20245;-68
2022/11/27 17:12:12;;;;;;;9.10;8.17;;;7.50;45.90;;;;;;10392359;28;20233;-69
2022/11/27 17:17:15;;;;;;;8.27;7.47;;;7.50;46.00;;;;;;10390670;28;20229;-69
2022/11/27 17:22:19;;;;;;;8.33;7.53;;;7.50;46.00;;;;;;10391083;28;20234;-69
2022/11/27 17:27:22;;;;;;;9.83;8.83;;;7.40;45.90;;;;;;10395586;28;20233;-69
2022/11/27 17:32:25;;;;;;;7.73;6.93;;;7.40;46.00;;;;;;10398193;28;20723;-69
2022/11/27 17:37:30;;;;;;;8.73;7.80;;;7.40;46.00;;;;;;10399442;28;20229;-69
2022/11/27 17:42:33;;;;;;;9.00;8.10;;;7.40;46.00;;;;;;10397449;28;20733;-69
2022/11/27 17:47:36;;;;;;;8.73;7.83;;;7.40;45.90;;;;;;10397714;28;20236;-69
2022/11/27 17:52:41;;;;;;;9.10;8.20;;;7.40;45.80;;;;;;10393994;28;20233;-75
2022/11/27 17:57:44;;;;;;;10.20;9.00;;;7.30;45.70;;;;;;10399062;28;20236;-75
2022/11/27 18:02:47;;;;;;;10.87;8.97;;;7.20;45.80;;;;;;10395701;28;20236;-75
2022/11/27 18:07:53;;;;;;;9.90;9.00;;;7.20;46.00;;;;;;10398317;28;20638;-75
2022/11/27 18:12:56;;;;;;;10.70;9.60;;;7.20;46.20;;;;;;10398332;28;20587;-70
2022/11/27 18:17:59;;;;;;;10.23;9.27;;;7.10;46.10;;;;;;10393525;28;20213;-75
2022/11/27 18:23:04;;;;;;;9.57;8.63;;;7.10;46.20;;;;;;10396650;28;20225;-73
2022/11/27 18:28:07;;;;;;;8.77;7.97;;;7.20;46.30;;;;;;10395403;28;20225;-71
2022/11/27 18:33:10;;;;;;;9.70;8.47;;;7.20;46.10;;;;;;10390268;28;20229;-70
2022/11/27 18:38:15;;;;;;;13.73;9.53;;;7.20;46.00;;;;;;10394005;28;21012;-70
2022/11/27 18:43:18;;;;;;;18.37;14.03;;;7.20;46.00;;;;;;10390781;28;20244;-71
2022/11/27 18:48:21;;;;;;;13.70;11.13;;;7.10;46.00;;;;;;10393646;28;20232;-70
2022/11/27 18:53:25;;;;;;;13.10;10.80;;;7.10;46.00;;;;;;10391239;28;20226;-70
2022/11/27 18:58:32;;;;;;;14.93;12.30;;;7.10;46.00;;;;;;10391836;28;20226;-67
2022/11/27 19:03:36;;;;;;;12.27;11.07;;;7.10;46.00;;;;;;10394090;28;20237;-67
2022/11/27 19:08:46;;;;;;;12.07;10.87;;;7.20;46.00;;;;;;10397037;28;20225;-67
2022/11/27 19:13:50;;;;;;;13.07;11.87;;;7.20;45.90;;;;;;10393611;28;20230;-75
2022/11/27 19:18:56;;;;;;;15.90;14.30;;;7.20;45.90;;;;;;10393876;28;20271;-75
2022/11/27 19:24:03;;;;;;;13.70;12.30;;;7.20;46.00;;;;;;10391362;28;20222;-67
2022/11/27 19:29:09;;;;;;;13.87;12.50;;;7.20;46.00;;;;;;10392145;28;20225;-67
2022/11/27 19:34:13;;;;;;;15.07;13.57;;;7.20;46.00;;;;;;10393461;28;20242;-67
2022/11/27 19:39:20;;;;;;;17.40;15.43;;;7.20;45.80;;;;;;10391582;28;20237;-71
2022/11/27 19:44:24;;;;;;;15.27;13.53;;;7.10;45.90;;;;;;10390445;28;20226;-70
2022/11/27 19:49:27;;;;;;;16.17;14.47;;;7.10;46.10;;;;;;10389515;28;20222;-68
2022/11/27 19:54:32;;;;;;;18.37;16.10;;;7.10;46.10;;;;;;10386746;28;20237;-67
2022/11/27 19:59:36;;;;;;;17.70;15.90;;;7.10;46.10;;;;;;10392134;28;20237;-67
2022/11/27 20:04:39;;;;;;;38.57;26.67;;;7.10;46.20;;;;;;10390973;28;20244;-67
2022/11/27 20:09:44;;;;;;;18.37;16.33;;;7.10;46.20;;;;;;10388474;28;20230;-67
2022/11/27 20:14:47;;;;;;;17.13;15.43;;;7.00;46.20;;;;;;10387289;28;20221;-67
2022/11/27 20:19:51;;;;;;;14.90;13.40;;;7.10;46.20;;;;;;10389433;28;20226;-67
2022/11/27 20:24:55;;;;;;;16.93;15.23;;;7.10;46.30;;;;;;10391735;28;20222;-71
2022/11/27 20:30:18;;;;;;;18.30;16.40;;;7.10;46.20;;;;;;10389075;28;20249;-70
2022/11/27 20:35:21;;;;;;;19.90;18.00;;;7.10;46.40;;;;;;10392265;28;20599;-75
2022/11/27 20:40:27;;;;;;;19.00;17.10;;;7.10;46.30;;;;;;10393084;28;20244;-71
2022/11/27 20:45:30;;;;;;;18.53;16.57;;;7.20;46.30;;;;;;10387320;28;20316;-71
2022/11/27 20:50:34;;;;;;;22.87;20.57;;;7.20;46.20;;;;;;10390822;28;20218;-67
2022/11/27 20:55:39;;;;;;;18.90;16.90;;;7.10;46.20;;;;;;10389890;28;20237;-67
2022/11/27 21:00:42;;;;;;;19.50;17.40;;;7.10;46.30;;;;;;10393240;28;20225;-67
2022/11/27 21:05:47;;;;;;;21.93;19.13;;;7.10;46.40;;;;;;10398283;28;20229;-70
2022/11/27 21:10:51;;;;;;;20.63;18.53;;;7.20;46.50;;;;;;10398753;28;20225;-75
2022/11/27 21:15:54;;;;;;;21.43;18.97;;;7.20;46.40;;;;;;10400732;28;20240;-75
2022/11/27 21:21:05;;;;;;;21.83;19.73;;;7.20;46.30;;;;;;10399560;28;20238;-70
2022/11/27 21:26:10;;;;;;;22.00;19.70;;;7.20;46.40;;;;;;10398011;28;20226;-70
2022/11/27 21:31:15;;;;;;;24.97;22.27;;;7.30;46.40;;;;;;10398092;28;20245;-67
2022/11/27 21:36:20;;;;;;;19.43;17.50;;;7.30;46.30;;;;;;10396379;28;20722;-67
2022/11/27 21:41:25;;;;;;;17.27;15.57;;;7.30;46.20;;;;;;10397637;28;20241;-70
2022/11/27 21:46:29;;;;;;;17.73;15.93;;;7.30;46.30;;;;;;10395049;28;21488;-71
2022/11/27 21:51:33;;;;;;;17.37;15.60;;;7.40;46.20;;;;;;10390983;28;20222;-75
2022/11/27 21:56:39;;;;;;;17.23;15.53;;;7.40;46.20;;;;;;10393394;28;20225;-71
2022/11/27 22:01:44;;;;;;;16.77;15.07;;;7.40;46.10;;;;;;10391561;28;20233;-71
2022/11/27 22:06:47;;;;;;;17.40;15.80;;;7.40;46.10;;;;;;10390572;28;20227;-71
2022/11/27 22:11:52;;;;;;;16.80;15.10;;;7.40;46.00;;;;;;10390405;28;20246;-71
2022/11/27 22:16:56;;;;;;;16.53;14.93;;;7.40;46.10;;;;;;10388603;28;20213;-67
2022/11/27 22:21:59;;;;;;;16.00;13.87;;;7.30;46.00;;;;;;10391949;28;20249;-71
2022/11/27 22:27:04;;;;;;;15.27;13.77;;;7.30;46.00;;;;;;10391398;28;20237;-68
2022/11/27 22:32:07;;;;;;;15.60;14.07;;;7.30;46.20;;;;;;10392193;28;20233;-69
2022/11/27 22:37:10;;;;;;;14.33;12.57;;;7.30;46.20;;;;;;10394166;28;20277;-70
2022/11/27 22:42:14;;;;;;;14.93;13.50;;;7.30;46.10;;;;;;10392574;28;20230;-67
2022/11/27 22:47:17;;;;;;;16.00;14.43;;;7.30;46.10;;;;;;10391912;28;20283;-71
2022/11/27 22:52:21;;;;;;;16.30;14.60;;;7.30;46.10;;;;;;10391351;28;20736;-71
2022/11/27 22:57:25;;;;;;;15.73;14.23;;;7.30;46.10;;;;;;10393022;28;20229;-71
2022/11/27 23:02:28;;;;;;;16.07;14.40;;;7.30;46.00;;;;;;10391878;28;20586;-69
2022/11/27 23:07:32;;;;;;;16.13;14.53;;;7.30;46.10;;;;;;10389519;28;20244;-69
2022/11/27 23:12:36;;;;;;;16.20;14.60;;;7.30;46.10;;;;;;10389381;28;20230;-75
2022/11/27 23:17:39;;;;;;;16.53;14.83;;;7.30;46.20;;;;;;10389087;28;20225;-75
2022/11/27 23:22:43;;;;;;;15.87;14.27;;;7.30;46.10;;;;;;10391909;28;20249;-75
2022/11/27 23:27:47;;;;;;;16.10;14.57;;;7.30;46.20;;;;;;10390686;28;20284;-71
2022/11/27 23:32:50;;;;;;;16.10;14.50;;;7.30;46.40;;;;;;10389927;28;20817;-71
2022/11/27 23:37:54;;;;;;;16.70;15.00;;;7.30;46.40;;;;;;10390789;28;20244;-67
2022/11/27 23:42:58;;;;;;;15.47;13.93;;;7.30;46.30;;;;;;10388139;28;20260;-67
2022/11/27 23:48:01;;;;;;;17.20;15.37;;;7.30;46.40;;;;;;10392468;28;20307;-67
2022/11/27 23:53:04;;;;;;;16.03;14.37;;;7.30;46.40;;;;;;10391945;28;20295;-67
2022/11/27 23:58:09;;;;;;;17.53;15.73;;;7.30;46.30;;;;;;10390570;28;20234;-68
